Airfield :
LOGIN :

Register | Disclaimer

   EN    FR    IT 

 










Legend :    VFR   Marginal VFR   IFR   Intensive IFR   Very Intensive IFR
Visi :
Ceiling :
>= 8 km
>= 3000ft
5 to 8 km
1000 to 3000 ft
1500m to 5 km
500 to 1000 ft
800 to 1500m
200 to 500 ft
< 800m
< 200 ft
Symbols :   Thunderstorms  Fog  Heavy snow  Heavy precipitations  Wind > 20 kt
SIGMETs :     Misc.  Thunderstorms  Icing  Turbulence  Mountain Waves  Volcanic Ashes






- Airport Elevation : 1300 ft
- IATA code : LIG


LFBL - Limoges

CURRENT METAR :
  • 040000Z AUTO 02010KT CAVOK 17/13 Q1020 NOSIG

EXPIRED METARs :
  • 031530Z AUTO 34006KT 290V030 CAVOK 24/13 Q1020 NOSIG
  • 032330Z AUTO 04009KT 9999 //////TCU 17/13 Q1020 BECMG NSC
  • 032300Z AUTO 29006KT 250V330 9999 -TSRA FEW049/// BKN110/// OVC130/// ///CB 18/14 Q1022 BECMG NSW NSC
  • 032230Z AUTO 33005KT 310V010 9999 ///CB 20/12 Q1022 BECMG NSC
  • 032200Z AUTO VRB03KT 9999 //////CB 21/11 Q1022 TEMPO VRB20G30KT 4000 TSRA
  • 032130Z AUTO 01008KT 9999 ///CB 21/11 Q1020 TEMPO VRB20G30KT 4000 TSRA

TAF TAF LFBL
Valid from the 04 at 00:00 until the 05 at 00:00 UTC


032300Z 0400/0424 34006KT CAVOK
TEMPO 0412/0417 SCT040 FEW065CB BKN100
ATIS : +33 5 55 48 40 37



MET'MAP, your aeronautical weather chart ! - Copyright ORBIFLY December 2007 - Disclaimer

ORBIFLY MET'MAP TEAM :

Programming & Development : Alexandra Zaïnal
Original concept : Baudouin d'Aumeries
Technical & hardware support : Manuel Goepfert
Assistance : Marc-Olivier Méhu




SOURCES & CREDITS :

   NOAA